Portada
METAR-TAF:

METAR-TAF

Aeroports :

Aeroport de Castelló

Castelló de la Plana, Espanya

latitud: 40-12-35N, longitud: 0-04-11E, altitud: 360 m

Observació

L'informe es va fer fa 37 minuts, a les 20:00 UTC
Vent 9 kt del Nord-Oest, variant entre Oest i Nord/Nord-Oest
Temperatura 9°C
Humitat 53%
Pressió 1009 hPa
Visibilitat 10 km o més
sense núvols per sota de 1500 mi sense presència de cumulonimbus.

METAR: LECH 222000Z AUTO 31009KT 270V340 CAVOK 09/M00 Q1009

Hora: 21:37 (20:37 UTC)


TAF: manca

Observacions i pronòstics meteorològics de més de 4000 aeroports (METAR i TAF).

Les estacions disponibles són els punts grocs i vermells al mapa.

Posi el ratolí al punt desitjat per veure el nom de l'estació.

Feu clic per veure les observacions i els pronòstics meteorològics.

Per canviar el mapa: feu clic els botons verds amb una creu de color negre per apropar; al botó verd amb un guió per allunyar la imatge; o en les fletxes verdes per a mapes adjacents.


METAR-TAF: